sensor_id;sensor_type;location;lat;lon;timestamp;temperature;humidity
10057;DHT22;5068;51.286;7.518;2024-02-23T00:00:09;6.80;55.20
10057;DHT22;5068;51.286;7.518;2024-02-23T00:01:44;6.80;55.30
10057;DHT22;5068;51.286;7.518;2024-02-23T00:03:16;6.80;55.40
10057;DHT22;5068;51.286;7.518;2024-02-23T00:04:50;6.80;55.50
10057;DHT22;5068;51.286;7.518;2024-02-23T00:06:23;6.80;55.70
10057;DHT22;5068;51.286;7.518;2024-02-23T00:07:59;6.70;55.70
10057;DHT22;5068;51.286;7.518;2024-02-23T00:09:33;6.70;55.70
10057;DHT22;5068;51.286;7.518;2024-02-23T00:11:05;6.70;55.70
10057;DHT22;5068;51.286;7.518;2024-02-23T00:12:39;6.70;55.70
10057;DHT22;5068;51.286;7.518;2024-02-23T00:14:12;6.60;55.70
10057;DHT22;5068;51.286;7.518;2024-02-23T00:15:45;6.60;55.80
10057;DHT22;5068;51.286;7.518;2024-02-23T00:17:18;6.60;55.80
10057;DHT22;5068;51.286;7.518;2024-02-23T00:18:51;6.60;55.70
10057;DHT22;5068;51.286;7.518;2024-02-23T00:20:24;6.60;55.80
10057;DHT22;5068;51.286;7.518;2024-02-23T00:21:59;6.60;56.40
10057;DHT22;5068;51.286;7.518;2024-02-23T00:23:31;6.60;55.80
10057;DHT22;5068;51.286;7.518;2024-02-23T00:25:05;6.50;55.90
10057;DHT22;5068;51.286;7.518;2024-02-23T00:26:39;6.50;56.10
10057;DHT22;5068;51.286;7.518;2024-02-23T00:28:11;6.50;56.20
10057;DHT22;5068;51.286;7.518;2024-02-23T00:29:45;6.50;56.30
10057;DHT22;5068;51.286;7.518;2024-02-23T00:31:17;6.50;56.20
10057;DHT22;5068;51.286;7.518;2024-02-23T00:32:50;6.50;56.10
10057;DHT22;5068;51.286;7.518;2024-02-23T00:34:22;6.50;56.10
10057;DHT22;5068;51.286;7.518;2024-02-23T00:35:56;6.40;56.00
10057;DHT22;5068;51.286;7.518;2024-02-23T00:37:30;6.40;56.00
10057;DHT22;5068;51.286;7.518;2024-02-23T00:39:07;6.40;55.90
10057;DHT22;5068;51.286;7.518;2024-02-23T00:40:40;6.40;56.00
10057;DHT22;5068;51.286;7.518;2024-02-23T00:42:12;6.30;55.80
10057;DHT22;5068;51.286;7.518;2024-02-23T00:43:45;6.30;55.80
10057;DHT22;5068;51.286;7.518;2024-02-23T00:45:19;6.30;55.80
10057;DHT22;5068;51.286;7.518;2024-02-23T00:46:51;6.30;55.70
10057;DHT22;5068;51.286;7.518;2024-02-23T00:48:25;6.20;55.60
10057;DHT22;5068;51.286;7.518;2024-02-23T00:49:57;6.20;55.60
10057;DHT22;5068;51.286;7.518;2024-02-23T00:51:30;6.20;55.70
10057;DHT22;5068;51.286;7.518;2024-02-23T00:53:04;6.20;55.80
10057;DHT22;5068;51.286;7.518;2024-02-23T00:54:37;6.10;55.70
10057;DHT22;5068;51.286;7.518;2024-02-23T00:56:10;6.10;55.80
10057;DHT22;5068;51.286;7.518;2024-02-23T00:57:44;6.10;56.00
10057;DHT22;5068;51.286;7.518;2024-02-23T00:59:17;6.10;55.90
10057;DHT22;5068;51.286;7.518;2024-02-23T01:00:50;6.00;55.80
10057;DHT22;5068;51.286;7.518;2024-02-23T01:02:23;6.00;55.90
10057;DHT22;5068;51.286;7.518;2024-02-23T01:03:56;6.00;56.00
10057;DHT22;5068;51.286;7.518;2024-02-23T01:05:28;6.00;56.10
10057;DHT22;5068;51.286;7.518;2024-02-23T01:07:02;6.00;56.20
10057;DHT22;5068;51.286;7.518;2024-02-23T01:08:36;5.90;56.20
10057;DHT22;5068;51.286;7.518;2024-02-23T01:10:09;5.90;56.30
10057;DHT22;5068;51.286;7.518;2024-02-23T01:11:41;5.90;56.60
10057;DHT22;5068;51.286;7.518;2024-02-23T01:13:15;5.90;56.30
10057;DHT22;5068;51.286;7.518;2024-02-23T01:14:48;5.90;56.30
10057;DHT22;5068;51.286;7.518;2024-02-23T01:16:21;5.80;56.20
10057;DHT22;5068;51.286;7.518;2024-02-23T01:17:54;5.80;56.30
10057;DHT22;5068;51.286;7.518;2024-02-23T01:19:28;5.80;56.30
10057;DHT22;5068;51.286;7.518;2024-02-23T01:21:01;5.80;56.20
10057;DHT22;5068;51.286;7.518;2024-02-23T01:22:33;5.90;56.40
10057;DHT22;5068;51.286;7.518;2024-02-23T01:24:08;5.80;56.40
10057;DHT22;5068;51.286;7.518;2024-02-23T01:25:40;5.80;56.50
10057;DHT22;5068;51.286;7.518;2024-02-23T01:27:13;5.80;56.60
10057;DHT22;5068;51.286;7.518;2024-02-23T01:28:45;5.70;56.50
10057;DHT22;5068;51.286;7.518;2024-02-23T01:30:19;5.70;56.60
10057;DHT22;5068;51.286;7.518;2024-02-23T01:31:52;5.70;56.70
10057;DHT22;5068;51.286;7.518;2024-02-23T01:33:26;5.70;56.70
10057;DHT22;5068;51.286;7.518;2024-02-23T01:34:59;5.70;56.70
10057;DHT22;5068;51.286;7.518;2024-02-23T01:36:32;5.70;56.80
10057;DHT22;5068;51.286;7.518;2024-02-23T01:38:05;5.60;56.90
10057;DHT22;5068;51.286;7.518;2024-02-23T01:39:38;5.60;57.00
10057;DHT22;5068;51.286;7.518;2024-02-23T01:41:12;5.60;56.90
10057;DHT22;5068;51.286;7.518;2024-02-23T01:42:44;5.60;56.90
10057;DHT22;5068;51.286;7.518;2024-02-23T01:44:17;5.60;57.60
10057;DHT22;5068;51.286;7.518;2024-02-23T01:45:52;5.60;56.90
10057;DHT22;5068;51.286;7.518;2024-02-23T01:47:27;5.60;57.00
10057;DHT22;5068;51.286;7.518;2024-02-23T01:49:02;5.60;57.10
10057;DHT22;5068;51.286;7.518;2024-02-23T01:50:36;5.60;57.10
10057;DHT22;5068;51.286;7.518;2024-02-23T01:52:10;5.60;57.20
10057;DHT22;5068;51.286;7.518;2024-02-23T01:53:44;5.60;57.20
10057;DHT22;5068;51.286;7.518;2024-02-23T01:55:20;5.60;57.30
10057;DHT22;5068;51.286;7.518;2024-02-23T01:56:52;5.60;57.20
10057;DHT22;5068;51.286;7.518;2024-02-23T01:58:28;5.60;57.20
10057;DHT22;5068;51.286;7.518;2024-02-23T02:00:02;5.60;57.10
10057;DHT22;5068;51.286;7.518;2024-02-23T02:01:42;5.60;56.90
10057;DHT22;5068;51.286;7.518;2024-02-23T02:03:16;5.60;56.90
10057;DHT22;5068;51.286;7.518;2024-02-23T02:04:49;5.60;56.90
10057;DHT22;5068;51.286;7.518;2024-02-23T02:06:21;5.60;57.00
10057;DHT22;5068;51.286;7.518;2024-02-23T02:07:56;5.60;57.10
10057;DHT22;5068;51.286;7.518;2024-02-23T02:09:31;5.50;57.10
10057;DHT22;5068;51.286;7.518;2024-02-23T02:11:06;5.60;57.10
10057;DHT22;5068;51.286;7.518;2024-02-23T02:12:39;5.60;57.00
10057;DHT22;5068;51.286;7.518;2024-02-23T02:14:12;5.60;56.90
10057;DHT22;5068;51.286;7.518;2024-02-23T02:15:45;5.60;57.00
10057;DHT22;5068;51.286;7.518;2024-02-23T02:17:18;5.60;56.90
10057;DHT22;5068;51.286;7.518;2024-02-23T02:18:51;5.60;56.90
10057;DHT22;5068;51.286;7.518;2024-02-23T02:20:25;5.60;56.90
10057;DHT22;5068;51.286;7.518;2024-02-23T02:21:58;5.50;56.90
10057;DHT22;5068;51.286;7.518;2024-02-23T02:23:31;5.60;57.10
10057;DHT22;5068;51.286;7.518;2024-02-23T02:25:05;5.60;57.00
10057;DHT22;5068;51.286;7.518;2024-02-23T02:26:40;5.60;56.90
10057;DHT22;5068;51.286;7.518;2024-02-23T02:28:14;5.60;56.90
10057;DHT22;5068;51.286;7.518;2024-02-23T02:29:50;5.60;57.00
10057;DHT22;5068;51.286;7.518;2024-02-23T02:31:23;5.60;57.10
10057;DHT22;5068;51.286;7.518;2024-02-23T02:32:56;5.60;57.10
10057;DHT22;5068;51.286;7.518;2024-02-23T02:34:29;5.60;56.90
10057;DHT22;5068;51.286;7.518;2024-02-23T02:36:03;5.60;56.90
10057;DHT22;5068;51.286;7.518;2024-02-23T02:37:36;5.60;57.00
10057;DHT22;5068;51.286;7.518;2024-02-23T02:39:09;5.60;56.90
10057;DHT22;5068;51.286;7.518;2024-02-23T02:40:42;5.60;56.80
10057;DHT22;5068;51.286;7.518;2024-02-23T02:42:17;5.60;56.80
10057;DHT22;5068;51.286;7.518;2024-02-23T02:43:49;5.60;56.70
10057;DHT22;5068;51.286;7.518;2024-02-23T02:45:23;5.60;56.70
10057;DHT22;5068;51.286;7.518;2024-02-23T02:46:56;5.50;56.60
10057;DHT22;5068;51.286;7.518;2024-02-23T02:48:29;5.50;56.60
10057;DHT22;5068;51.286;7.518;2024-02-23T02:50:02;5.50;56.60
10057;DHT22;5068;51.286;7.518;2024-02-23T02:51:38;5.50;56.60
10057;DHT22;5068;51.286;7.518;2024-02-23T02:53:11;5.50;56.60
10057;DHT22;5068;51.286;7.518;2024-02-23T02:54:44;5.50;56.50
10057;DHT22;5068;51.286;7.518;2024-02-23T02:56:17;5.50;56.50
10057;DHT22;5068;51.286;7.518;2024-02-23T02:57:51;5.50;56.50
10057;DHT22;5068;51.286;7.518;2024-02-23T02:59:24;5.50;56.50
10057;DHT22;5068;51.286;7.518;2024-02-23T03:00:59;5.50;56.50
10057;DHT22;5068;51.286;7.518;2024-02-23T03:02:32;5.50;56.50
10057;DHT22;5068;51.286;7.518;2024-02-23T03:04:05;5.50;56.50
10057;DHT22;5068;51.286;7.518;2024-02-23T03:05:37;5.50;56.60
10057;DHT22;5068;51.286;7.518;2024-02-23T03:07:11;5.50;56.60
10057;DHT22;5068;51.286;7.518;2024-02-23T03:08:44;5.40;56.50
10057;DHT22;5068;51.286;7.518;2024-02-23T03:10:17;5.40;56.50
10057;DHT22;5068;51.286;7.518;2024-02-23T03:11:50;5.40;56.60
10057;DHT22;5068;51.286;7.518;2024-02-23T03:13:25;5.40;56.60
10057;DHT22;5068;51.286;7.518;2024-02-23T03:14:57;5.40;56.60
10057;DHT22;5068;51.286;7.518;2024-02-23T03:16:30;5.40;56.50
10057;DHT22;5068;51.286;7.518;2024-02-23T03:18:03;5.40;56.50
10057;DHT22;5068;51.286;7.518;2024-02-23T03:19:36;5.40;56.50
10057;DHT22;5068;51.286;7.518;2024-02-23T03:21:10;5.40;56.60
10057;DHT22;5068;51.286;7.518;2024-02-23T03:22:43;5.40;56.50
10057;DHT22;5068;51.286;7.518;2024-02-23T03:24:15;5.40;56.60
10057;DHT22;5068;51.286;7.518;2024-02-23T03:25:48;5.40;56.50
10057;DHT22;5068;51.286;7.518;2024-02-23T03:27:28;5.40;56.50
10057;DHT22;5068;51.286;7.518;2024-02-23T03:29:02;5.40;56.50
10057;DHT22;5068;51.286;7.518;2024-02-23T03:30:35;5.30;57.20
10057;DHT22;5068;51.286;7.518;2024-02-23T03:32:08;5.40;56.50
10057;DHT22;5068;51.286;7.518;2024-02-23T03:33:41;5.30;57.20
10057;DHT22;5068;51.286;7.518;2024-02-23T03:35:14;5.30;57.20
10057;DHT22;5068;51.286;7.518;2024-02-23T03:36:47;5.30;57.20
10057;DHT22;5068;51.286;7.518;2024-02-23T03:38:20;5.30;57.20
10057;DHT22;5068;51.286;7.518;2024-02-23T03:39:52;5.30;57.20
10057;DHT22;5068;51.286;7.518;2024-02-23T03:41:26;5.30;57.10
10057;DHT22;5068;51.286;7.518;2024-02-23T03:42:59;5.30;57.20
10057;DHT22;5068;51.286;7.518;2024-02-23T03:44:34;5.30;57.10
10057;DHT22;5068;51.286;7.518;2024-02-23T03:46:06;5.30;57.00
10057;DHT22;5068;51.286;7.518;2024-02-23T03:47:39;5.30;57.00
10057;DHT22;5068;51.286;7.518;2024-02-23T03:49:13;5.20;57.00
10057;DHT22;5068;51.286;7.518;2024-02-23T03:50:46;5.30;57.10
10057;DHT22;5068;51.286;7.518;2024-02-23T03:52:19;5.30;57.10
10057;DHT22;5068;51.286;7.518;2024-02-23T03:53:52;5.20;57.00
10057;DHT22;5068;51.286;7.518;2024-02-23T03:55:24;5.20;56.90
10057;DHT22;5068;51.286;7.518;2024-02-23T03:56:58;5.20;56.90
10057;DHT22;5068;51.286;7.518;2024-02-23T03:58:30;5.20;56.90
10057;DHT22;5068;51.286;7.518;2024-02-23T04:00:06;5.20;56.90
10057;DHT22;5068;51.286;7.518;2024-02-23T04:01:46;5.20;57.00
10057;DHT22;5068;51.286;7.518;2024-02-23T04:03:19;5.20;56.90
10057;DHT22;5068;51.286;7.518;2024-02-23T04:04:52;5.20;57.60
10057;DHT22;5068;51.286;7.518;2024-02-23T04:06:26;5.20;56.90
10057;DHT22;5068;51.286;7.518;2024-02-23T04:07:58;5.20;57.00
10057;DHT22;5068;51.286;7.518;2024-02-23T04:09:31;5.20;57.00
10057;DHT22;5068;51.286;7.518;2024-02-23T04:11:04;5.10;57.00
10057;DHT22;5068;51.286;7.518;2024-02-23T04:12:37;5.10;56.90
10057;DHT22;5068;51.286;7.518;2024-02-23T04:14:10;5.20;57.10
10057;DHT22;5068;51.286;7.518;2024-02-23T04:15:44;5.20;57.10
10057;DHT22;5068;51.286;7.518;2024-02-23T04:17:18;5.10;57.00
10057;DHT22;5068;51.286;7.518;2024-02-23T04:18:50;5.20;57.10
10057;DHT22;5068;51.286;7.518;2024-02-23T04:20:24;5.10;57.00
10057;DHT22;5068;51.286;7.518;2024-02-23T04:21:57;5.10;56.90
10057;DHT22;5068;51.286;7.518;2024-02-23T04:23:30;5.20;56.90
10057;DHT22;5068;51.286;7.518;2024-02-23T04:25:04;5.20;57.00
10057;DHT22;5068;51.286;7.518;2024-02-23T04:26:37;5.10;57.00
10057;DHT22;5068;51.286;7.518;2024-02-23T04:28:10;5.10;56.80
10057;DHT22;5068;51.286;7.518;2024-02-23T04:29:43;5.10;56.80
10057;DHT22;5068;51.286;7.518;2024-02-23T04:31:17;5.10;56.90
10057;DHT22;5068;51.286;7.518;2024-02-23T04:32:49;5.10;56.90
10057;DHT22;5068;51.286;7.518;2024-02-23T04:34:23;5.10;56.90
10057;DHT22;5068;51.286;7.518;2024-02-23T04:35:55;5.10;56.90
10057;DHT22;5068;51.286;7.518;2024-02-23T04:37:28;5.10;56.90
10057;DHT22;5068;51.286;7.518;2024-02-23T04:39:06;5.10;56.90
10057;DHT22;5068;51.286;7.518;2024-02-23T04:40:39;5.10;56.90
10057;DHT22;5068;51.286;7.518;2024-02-23T04:42:11;5.10;56.90
10057;DHT22;5068;51.286;7.518;2024-02-23T04:43:45;5.10;57.00
10057;DHT22;5068;51.286;7.518;2024-02-23T04:45:18;5.10;57.00
10057;DHT22;5068;51.286;7.518;2024-02-23T04:46:52;5.10;57.00
10057;DHT22;5068;51.286;7.518;2024-02-23T04:48:25;5.10;57.00
10057;DHT22;5068;51.286;7.518;2024-02-23T04:49:57;5.10;57.00
10057;DHT22;5068;51.286;7.518;2024-02-23T04:51:31;5.10;57.00
10057;DHT22;5068;51.286;7.518;2024-02-23T04:53:04;5.10;57.00
10057;DHT22;5068;51.286;7.518;2024-02-23T04:54:37;5.10;57.00
10057;DHT22;5068;51.286;7.518;2024-02-23T04:56:10;5.10;57.00
10057;DHT22;5068;51.286;7.518;2024-02-23T04:57:42;5.10;57.10
10057;DHT22;5068;51.286;7.518;2024-02-23T04:59:16;5.00;57.00
10057;DHT22;5068;51.286;7.518;2024-02-23T05:00:49;5.10;57.10
10057;DHT22;5068;51.286;7.518;2024-02-23T05:02:23;5.10;57.10
10057;DHT22;5068;51.286;7.518;2024-02-23T05:03:56;5.10;57.10
10057;DHT22;5068;51.286;7.518;2024-02-23T05:05:28;5.10;57.10
10057;DHT22;5068;51.286;7.518;2024-02-23T05:07:02;5.10;57.00
10057;DHT22;5068;51.286;7.518;2024-02-23T05:08:34;5.10;57.00
10057;DHT22;5068;51.286;7.518;2024-02-23T05:10:09;5.10;57.00
10057;DHT22;5068;51.286;7.518;2024-02-23T05:11:42;5.10;57.10
10057;DHT22;5068;51.286;7.518;2024-02-23T05:13:15;5.00;57.00
10057;DHT22;5068;51.286;7.518;2024-02-23T05:14:48;5.10;57.00
10057;DHT22;5068;51.286;7.518;2024-02-23T05:16:20;5.00;57.00
10057;DHT22;5068;51.286;7.518;2024-02-23T05:17:55;5.00;57.00
10057;DHT22;5068;51.286;7.518;2024-02-23T05:19:28;5.00;56.80
10057;DHT22;5068;51.286;7.518;2024-02-23T05:21:01;5.00;56.80
10057;DHT22;5068;51.286;7.518;2024-02-23T05:22:33;5.00;56.90
10057;DHT22;5068;51.286;7.518;2024-02-23T05:24:07;5.00;57.00
10057;DHT22;5068;51.286;7.518;2024-02-23T05:25:39;5.00;57.00
10057;DHT22;5068;51.286;7.518;2024-02-23T05:27:12;5.00;57.00
10057;DHT22;5068;51.286;7.518;2024-02-23T05:28:44;5.00;57.00
10057;DHT22;5068;51.286;7.518;2024-02-23T05:30:18;5.00;57.00
10057;DHT22;5068;51.286;7.518;2024-02-23T05:31:52;5.00;57.00
10057;DHT22;5068;51.286;7.518;2024-02-23T05:33:27;5.00;57.00
10057;DHT22;5068;51.286;7.518;2024-02-23T05:34:59;5.00;56.90
10057;DHT22;5068;51.286;7.518;2024-02-23T05:36:34;5.00;57.10
10057;DHT22;5068;51.286;7.518;2024-02-23T05:38:10;5.00;57.00
10057;DHT22;5068;51.286;7.518;2024-02-23T05:39:43;5.00;57.10
10057;DHT22;5068;51.286;7.518;2024-02-23T05:41:18;5.00;57.00
10057;DHT22;5068;51.286;7.518;2024-02-23T05:42:52;5.00;57.00
10057;DHT22;5068;51.286;7.518;2024-02-23T05:44:26;5.00;57.00
10057;DHT22;5068;51.286;7.518;2024-02-23T05:46:00;4.90;56.90
10057;DHT22;5068;51.286;7.518;2024-02-23T05:47:34;4.90;56.80
10057;DHT22;5068;51.286;7.518;2024-02-23T05:49:07;4.90;56.80
10057;DHT22;5068;51.286;7.518;2024-02-23T05:50:41;4.90;56.80
10057;DHT22;5068;51.286;7.518;2024-02-23T05:52:14;4.90;56.80
10057;DHT22;5068;51.286;7.518;2024-02-23T05:53:47;4.90;56.90
10057;DHT22;5068;51.286;7.518;2024-02-23T05:55:20;4.90;56.80
10057;DHT22;5068;51.286;7.518;2024-02-23T05:56:53;4.90;56.90
10057;DHT22;5068;51.286;7.518;2024-02-23T05:58:25;4.90;56.80
10057;DHT22;5068;51.286;7.518;2024-02-23T05:59:59;4.90;56.80
10057;DHT22;5068;51.286;7.518;2024-02-23T06:01:31;4.90;56.70
10057;DHT22;5068;51.286;7.518;2024-02-23T06:03:04;4.90;56.70
10057;DHT22;5068;51.286;7.518;2024-02-23T06:04:40;4.90;56.60
10057;DHT22;5068;51.286;7.518;2024-02-23T06:06:14;4.80;56.60
10057;DHT22;5068;51.286;7.518;2024-02-23T06:07:46;4.90;56.70
10057;DHT22;5068;51.286;7.518;2024-02-23T06:09:21;4.90;56.70
10057;DHT22;5068;51.286;7.518;2024-02-23T06:10:54;4.80;56.60
10057;DHT22;5068;51.286;7.518;2024-02-23T06:12:27;4.80;56.60
10057;DHT22;5068;51.286;7.518;2024-02-23T06:14:00;4.80;56.60
10057;DHT22;5068;51.286;7.518;2024-02-23T06:15:33;4.80;56.60
10057;DHT22;5068;51.286;7.518;2024-02-23T06:17:06;4.80;56.70
10057;DHT22;5068;51.286;7.518;2024-02-23T06:18:40;4.80;56.80
10057;DHT22;5068;51.286;7.518;2024-02-23T06:20:16;4.80;56.80
10057;DHT22;5068;51.286;7.518;2024-02-23T06:21:50;4.80;56.80
10057;DHT22;5068;51.286;7.518;2024-02-23T06:23:22;4.80;56.80
10057;DHT22;5068;51.286;7.518;2024-02-23T06:24:56;4.70;56.80
10057;DHT22;5068;51.286;7.518;2024-02-23T06:26:28;4.70;56.70
10057;DHT22;5068;51.286;7.518;2024-02-23T06:28:02;4.70;56.70
10057;DHT22;5068;51.286;7.518;2024-02-23T06:29:35;4.70;56.80
10057;DHT22;5068;51.286;7.518;2024-02-23T06:31:09;4.70;56.80
10057;DHT22;5068;51.286;7.518;2024-02-23T06:32:43;4.70;56.80
10057;DHT22;5068;51.286;7.518;2024-02-23T06:34:17;4.70;56.80
10057;DHT22;5068;51.286;7.518;2024-02-23T06:35:52;4.70;56.80
10057;DHT22;5068;51.286;7.518;2024-02-23T06:37:24;4.60;56.80
10057;DHT22;5068;51.286;7.518;2024-02-23T06:38:58;4.60;56.80
10057;DHT22;5068;51.286;7.518;2024-02-23T06:40:31;4.60;56.80
10057;DHT22;5068;51.286;7.518;2024-02-23T06:42:19;4.60;56.90
10057;DHT22;5068;51.286;7.518;2024-02-23T06:43:52;4.60;57.00
10057;DHT22;5068;51.286;7.518;2024-02-23T06:45:25;4.60;57.00
10057;DHT22;5068;51.286;7.518;2024-02-23T06:46:58;4.60;57.10
10057;DHT22;5068;51.286;7.518;2024-02-23T06:48:31;4.60;57.10
10057;DHT22;5068;51.286;7.518;2024-02-23T06:50:07;4.50;57.10
10057;DHT22;5068;51.286;7.518;2024-02-23T06:51:42;4.60;57.30
10057;DHT22;5068;51.286;7.518;2024-02-23T06:53:14;4.50;57.40
10057;DHT22;5068;51.286;7.518;2024-02-23T06:54:48;4.50;57.20
10057;DHT22;5068;51.286;7.518;2024-02-23T06:56:25;4.50;57.20
10057;DHT22;5068;51.286;7.518;2024-02-23T06:58:03;4.50;57.30
10057;DHT22;5068;51.286;7.518;2024-02-23T06:59:36;4.50;57.40
10057;DHT22;5068;51.286;7.518;2024-02-23T07:01:10;4.50;57.40
10057;DHT22;5068;51.286;7.518;2024-02-23T07:02:45;4.50;57.50
10057;DHT22;5068;51.286;7.518;2024-02-23T07:04:18;4.50;57.50
10057;DHT22;5068;51.286;7.518;2024-02-23T07:05:51;4.50;57.40
10057;DHT22;5068;51.286;7.518;2024-02-23T07:07:26;4.50;57.40
10057;DHT22;5068;51.286;7.518;2024-02-23T07:09:00;4.50;57.40
10057;DHT22;5068;51.286;7.518;2024-02-23T07:10:36;4.50;57.40
10057;DHT22;5068;51.286;7.518;2024-02-23T07:12:08;4.50;57.40
10057;DHT22;5068;51.286;7.518;2024-02-23T07:13:45;4.50;57.20
10057;DHT22;5068;51.286;7.518;2024-02-23T07:15:20;4.50;57.40
10057;DHT22;5068;51.286;7.518;2024-02-23T07:16:54;4.50;57.20
10057;DHT22;5068;51.286;7.518;2024-02-23T07:18:29;4.50;57.40
10057;DHT22;5068;51.286;7.518;2024-02-23T07:20:02;4.50;57.50
10057;DHT22;5068;51.286;7.518;2024-02-23T07:21:38;4.50;57.50
10057;DHT22;5068;51.286;7.518;2024-02-23T07:23:16;4.50;57.40
10057;DHT22;5068;51.286;7.518;2024-02-23T07:24:49;4.50;57.50
10057;DHT22;5068;51.286;7.518;2024-02-23T07:26:21;4.50;57.30
10057;DHT22;5068;51.286;7.518;2024-02-23T07:27:55;4.50;57.50
10057;DHT22;5068;51.286;7.518;2024-02-23T07:29:28;4.60;57.70
10057;DHT22;5068;51.286;7.518;2024-02-23T07:31:02;4.60;57.50
10057;DHT22;5068;51.286;7.518;2024-02-23T07:32:35;4.60;57.60
10057;DHT22;5068;51.286;7.518;2024-02-23T07:34:08;4.60;57.60
10057;DHT22;5068;51.286;7.518;2024-02-23T07:35:41;4.60;57.70
10057;DHT22;5068;51.286;7.518;2024-02-23T07:37:14;4.60;57.70
10057;DHT22;5068;51.286;7.518;2024-02-23T07:38:48;4.60;57.70
10057;DHT22;5068;51.286;7.518;2024-02-23T07:40:21;4.60;57.70
10057;DHT22;5068;51.286;7.518;2024-02-23T07:41:54;4.60;57.70
10057;DHT22;5068;51.286;7.518;2024-02-23T07:43:27;4.60;57.70
10057;DHT22;5068;51.286;7.518;2024-02-23T07:45:02;4.60;57.60
10057;DHT22;5068;51.286;7.518;2024-02-23T07:46:36;4.60;57.70
10057;DHT22;5068;51.286;7.518;2024-02-23T07:48:08;4.60;57.50
10057;DHT22;5068;51.286;7.518;2024-02-23T07:49:42;4.60;57.50
10057;DHT22;5068;51.286;7.518;2024-02-23T07:51:14;4.60;57.50
10057;DHT22;5068;51.286;7.518;2024-02-23T07:52:47;4.70;57.60
10057;DHT22;5068;51.286;7.518;2024-02-23T07:54:21;4.70;57.70
10057;DHT22;5068;51.286;7.518;2024-02-23T07:55:54;4.70;57.70
10057;DHT22;5068;51.286;7.518;2024-02-23T07:57:27;4.60;57.60
10057;DHT22;5068;51.286;7.518;2024-02-23T07:59:00;4.70;57.40
10057;DHT22;5068;51.286;7.518;2024-02-23T08:00:35;4.70;57.70
10057;DHT22;5068;51.286;7.518;2024-02-23T08:02:10;4.70;57.70
10057;DHT22;5068;51.286;7.518;2024-02-23T08:03:43;4.70;57.80
10057;DHT22;5068;51.286;7.518;2024-02-23T08:05:16;4.70;57.90
10057;DHT22;5068;51.286;7.518;2024-02-23T08:06:49;4.70;58.00
10057;DHT22;5068;51.286;7.518;2024-02-23T08:08:23;4.70;58.00
10057;DHT22;5068;51.286;7.518;2024-02-23T08:09:58;4.70;57.90
10057;DHT22;5068;51.286;7.518;2024-02-23T08:11:32;4.70;57.80
10057;DHT22;5068;51.286;7.518;2024-02-23T08:13:08;4.70;57.80
10057;DHT22;5068;51.286;7.518;2024-02-23T08:14:42;4.80;58.00
10057;DHT22;5068;51.286;7.518;2024-02-23T08:16:17;4.80;58.00
10057;DHT22;5068;51.286;7.518;2024-02-23T08:17:49;4.80;58.00
10057;DHT22;5068;51.286;7.518;2024-02-23T08:19:23;4.80;58.00
10057;DHT22;5068;51.286;7.518;2024-02-23T08:20:56;4.90;58.00
10057;DHT22;5068;51.286;7.518;2024-02-23T08:22:29;4.90;57.90
10057;DHT22;5068;51.286;7.518;2024-02-23T08:24:02;4.90;58.00
10057;DHT22;5068;51.286;7.518;2024-02-23T08:25:37;5.00;58.00
10057;DHT22;5068;51.286;7.518;2024-02-23T08:27:11;5.00;58.00
10057;DHT22;5068;51.286;7.518;2024-02-23T08:28:43;5.00;58.00
10057;DHT22;5068;51.286;7.518;2024-02-23T08:30:16;5.00;57.90
10057;DHT22;5068;51.286;7.518;2024-02-23T08:31:49;5.10;57.80
10057;DHT22;5068;51.286;7.518;2024-02-23T08:33:23;5.10;57.60
10057;DHT22;5068;51.286;7.518;2024-02-23T08:34:55;5.10;57.60
10057;DHT22;5068;51.286;7.518;2024-02-23T08:36:32;5.20;57.60
10057;DHT22;5068;51.286;7.518;2024-02-23T08:38:04;5.20;57.50
10057;DHT22;5068;51.286;7.518;2024-02-23T08:39:37;5.20;57.40
10057;DHT22;5068;51.286;7.518;2024-02-23T08:41:11;5.20;57.40
10057;DHT22;5068;51.286;7.518;2024-02-23T08:42:44;5.30;57.40
10057;DHT22;5068;51.286;7.518;2024-02-23T08:44:18;5.30;57.40
10057;DHT22;5068;51.286;7.518;2024-02-23T08:45:52;5.30;57.40
10057;DHT22;5068;51.286;7.518;2024-02-23T08:47:24;5.40;56.50
10057;DHT22;5068;51.286;7.518;2024-02-23T08:49:00;5.40;56.40
10057;DHT22;5068;51.286;7.518;2024-02-23T08:50:32;5.40;56.40
10057;DHT22;5068;51.286;7.518;2024-02-23T08:52:07;5.50;56.50
10057;DHT22;5068;51.286;7.518;2024-02-23T08:53:39;5.50;56.50
10057;DHT22;5068;51.286;7.518;2024-02-23T08:55:13;5.50;56.30
10057;DHT22;5068;51.286;7.518;2024-02-23T08:56:47;5.50;56.10
10057;DHT22;5068;51.286;7.518;2024-02-23T08:58:20;5.60;56.20
10057;DHT22;5068;51.286;7.518;2024-02-23T08:59:52;5.60;56.10
10057;DHT22;5068;51.286;7.518;2024-02-23T09:01:28;5.60;56.10
10057;DHT22;5068;51.286;7.518;2024-02-23T09:03:01;5.60;56.10
10057;DHT22;5068;51.286;7.518;2024-02-23T09:04:34;5.60;56.10
10057;DHT22;5068;51.286;7.518;2024-02-23T09:06:06;5.70;56.00
10057;DHT22;5068;51.286;7.518;2024-02-23T09:07:40;5.60;55.80
10057;DHT22;5068;51.286;7.518;2024-02-23T09:09:13;5.70;55.90
10057;DHT22;5068;51.286;7.518;2024-02-23T09:10:46;5.70;55.90
10057;DHT22;5068;51.286;7.518;2024-02-23T09:12:20;5.70;55.90
10057;DHT22;5068;51.286;7.518;2024-02-23T09:13:53;5.70;55.80
10057;DHT22;5068;51.286;7.518;2024-02-23T09:15:26;5.80;55.90
10057;DHT22;5068;51.286;7.518;2024-02-23T09:16:59;5.80;55.90
10057;DHT22;5068;51.286;7.518;2024-02-23T09:18:31;5.80;55.80
10057;DHT22;5068;51.286;7.518;2024-02-23T09:20:05;5.80;55.80
10057;DHT22;5068;51.286;7.518;2024-02-23T09:21:39;5.80;55.90
10057;DHT22;5068;51.286;7.518;2024-02-23T09:23:12;5.80;55.80
10057;DHT22;5068;51.286;7.518;2024-02-23T09:24:46;5.90;55.90
10057;DHT22;5068;51.286;7.518;2024-02-23T09:26:18;5.90;55.80
10057;DHT22;5068;51.286;7.518;2024-02-23T09:27:56;5.90;55.80
10057;DHT22;5068;51.286;7.518;2024-02-23T09:29:29;5.90;55.60
10057;DHT22;5068;51.286;7.518;2024-02-23T09:31:03;6.00;55.70
10057;DHT22;5068;51.286;7.518;2024-02-23T09:32:36;6.00;55.70
10057;DHT22;5068;51.286;7.518;2024-02-23T09:34:10;6.00;55.60
10057;DHT22;5068;51.286;7.518;2024-02-23T09:35:43;6.00;55.60
10057;DHT22;5068;51.286;7.518;2024-02-23T09:37:16;6.00;55.50
10057;DHT22;5068;51.286;7.518;2024-02-23T09:38:48;6.00;55.50
10057;DHT22;5068;51.286;7.518;2024-02-23T09:40:22;6.10;55.60
10057;DHT22;5068;51.286;7.518;2024-02-23T09:41:55;6.10;55.60
10057;DHT22;5068;51.286;7.518;2024-02-23T09:43:31;6.10;55.60
10057;DHT22;5068;51.286;7.518;2024-02-23T09:45:07;6.20;55.60
10057;DHT22;5068;51.286;7.518;2024-02-23T09:46:43;6.20;55.60
10057;DHT22;5068;51.286;7.518;2024-02-23T09:48:18;6.20;55.60
10057;DHT22;5068;51.286;7.518;2024-02-23T09:49:53;6.20;55.70
10057;DHT22;5068;51.286;7.518;2024-02-23T09:51:26;6.30;55.90
10057;DHT22;5068;51.286;7.518;2024-02-23T09:53:01;6.30;55.80
10057;DHT22;5068;51.286;7.518;2024-02-23T09:54:37;6.30;55.80
10057;DHT22;5068;51.286;7.518;2024-02-23T09:56:11;6.30;55.90
10057;DHT22;5068;51.286;7.518;2024-02-23T09:57:44;6.30;55.90
10057;DHT22;5068;51.286;7.518;2024-02-23T09:59:21;6.40;56.00
10057;DHT22;5068;51.286;7.518;2024-02-23T10:00:54;6.40;55.90
10057;DHT22;5068;51.286;7.518;2024-02-23T10:02:29;6.40;55.90
10057;DHT22;5068;51.286;7.518;2024-02-23T10:04:04;6.40;55.90
10057;DHT22;5068;51.286;7.518;2024-02-23T10:05:39;6.40;56.00
10057;DHT22;5068;51.286;7.518;2024-02-23T10:07:14;6.40;56.00
10057;DHT22;5068;51.286;7.518;2024-02-23T10:08:48;6.40;56.00
10057;DHT22;5068;51.286;7.518;2024-02-23T10:10:24;6.40;56.00